sensor_id;sensor_type;location;lat;lon;timestamp;P1;durP1;ratioP1;P2;durP2;ratioP2
76848;SDS011;65814;51.134;16.980;2023-08-01T00:00:27;4.40;;;2.50;;
76848;SDS011;65814;51.134;16.980;2023-08-01T00:03:16;6.20;;;3.00;;
76848;SDS011;65814;51.134;16.980;2023-08-01T00:05:43;3.80;;;2.60;;
76848;SDS011;65814;51.134;16.980;2023-08-01T00:08:15;4.30;;;2.50;;
76848;SDS011;65814;51.134;16.980;2023-08-01T00:10:45;4.00;;;2.80;;
76848;SDS011;65814;51.134;16.980;2023-08-01T00:13:13;4.20;;;2.50;;
76848;SDS011;65814;51.134;16.980;2023-08-01T00:15:41;5.00;;;2.70;;
76848;SDS011;65814;51.134;16.980;2023-08-01T00:18:20;3.20;;;2.40;;
76848;SDS011;65814;51.134;16.980;2023-08-01T00:20:51;5.10;;;3.20;;
76848;SDS011;65814;51.134;16.980;2023-08-01T00:23:21;5.30;;;2.80;;
76848;SDS011;65814;51.134;16.980;2023-08-01T00:25:48;6.00;;;3.10;;
76848;SDS011;65814;51.134;16.980;2023-08-01T00:28:19;4.80;;;2.70;;
76848;SDS011;65814;51.134;16.980;2023-08-01T00:30:47;4.10;;;2.50;;
76848;SDS011;65814;51.134;16.980;2023-08-01T00:33:15;4.60;;;2.80;;
76848;SDS011;65814;51.134;16.980;2023-08-01T00:35:43;7.00;;;3.50;;
76848;SDS011;65814;51.134;16.980;2023-08-01T00:38:10;4.20;;;2.60;;
76848;SDS011;65814;51.134;16.980;2023-08-01T00:40:38;6.90;;;2.50;;
76848;SDS011;65814;51.134;16.980;2023-08-01T00:43:06;3.60;;;2.50;;
76848;SDS011;65814;51.134;16.980;2023-08-01T00:45:35;3.80;;;2.30;;
76848;SDS011;65814;51.134;16.980;2023-08-01T00:48:03;5.20;;;2.90;;
76848;SDS011;65814;51.134;16.980;2023-08-01T00:50:32;5.30;;;2.90;;
76848;SDS011;65814;51.134;16.980;2023-08-01T00:53:00;3.50;;;2.60;;
76848;SDS011;65814;51.134;16.980;2023-08-01T00:55:28;5.70;;;3.20;;
76848;SDS011;65814;51.134;16.980;2023-08-01T00:57:56;3.80;;;2.40;;
76848;SDS011;65814;51.134;16.980;2023-08-01T01:00:24;4.30;;;2.40;;
76848;SDS011;65814;51.134;16.980;2023-08-01T01:02:53;4.80;;;2.30;;
76848;SDS011;65814;51.134;16.980;2023-08-01T01:05:21;4.80;;;2.90;;
76848;SDS011;65814;51.134;16.980;2023-08-01T01:07:51;5.20;;;2.50;;
76848;SDS011;65814;51.134;16.980;2023-08-01T01:10:19;4.40;;;3.00;;
76848;SDS011;65814;51.134;16.980;2023-08-01T01:12:47;3.50;;;2.70;;
76848;SDS011;65814;51.134;16.980;2023-08-01T01:15:15;5.20;;;3.10;;
76848;SDS011;65814;51.134;16.980;2023-08-01T01:17:43;5.70;;;2.20;;
76848;SDS011;65814;51.134;16.980;2023-08-01T01:20:11;3.40;;;2.40;;
76848;SDS011;65814;51.134;16.980;2023-08-01T01:22:39;4.30;;;2.30;;
76848;SDS011;65814;51.134;16.980;2023-08-01T01:25:09;5.30;;;2.70;;
76848;SDS011;65814;51.134;16.980;2023-08-01T01:27:37;4.10;;;2.60;;
76848;SDS011;65814;51.134;16.980;2023-08-01T01:30:06;3.40;;;2.50;;
76848;SDS011;65814;51.134;16.980;2023-08-01T01:32:34;4.40;;;2.40;;
76848;SDS011;65814;51.134;16.980;2023-08-01T01:35:03;4.90;;;2.70;;
76848;SDS011;65814;51.134;16.980;2023-08-01T01:37:31;4.00;;;2.40;;
76848;SDS011;65814;51.134;16.980;2023-08-01T01:39:59;3.80;;;2.80;;
76848;SDS011;65814;51.134;16.980;2023-08-01T01:42:27;3.90;;;2.60;;
76848;SDS011;65814;51.134;16.980;2023-08-01T01:44:55;3.20;;;2.20;;
76848;SDS011;65814;51.134;16.980;2023-08-01T01:47:23;4.80;;;2.80;;
76848;SDS011;65814;51.134;16.980;2023-08-01T01:49:51;3.40;;;2.40;;
76848;SDS011;65814;51.134;16.980;2023-08-01T01:52:19;3.90;;;2.60;;
76848;SDS011;65814;51.134;16.980;2023-08-01T01:54:46;4.20;;;2.20;;
76848;SDS011;65814;51.134;16.980;2023-08-01T01:57:14;3.80;;;2.60;;
76848;SDS011;65814;51.134;16.980;2023-08-01T01:59:42;7.30;;;2.90;;
76848;SDS011;65814;51.134;16.980;2023-08-01T02:02:10;3.80;;;2.40;;
76848;SDS011;65814;51.134;16.980;2023-08-01T02:04:38;4.00;;;2.50;;
76848;SDS011;65814;51.134;16.980;2023-08-01T02:07:06;3.70;;;3.00;;
76848;SDS011;65814;51.134;16.980;2023-08-01T02:09:37;4.10;;;2.40;;
76848;SDS011;65814;51.134;16.980;2023-08-01T02:12:05;4.50;;;2.60;;
76848;SDS011;65814;51.134;16.980;2023-08-01T02:14:37;5.40;;;2.50;;
76848;SDS011;65814;51.134;16.980;2023-08-01T02:17:05;4.50;;;2.80;;
76848;SDS011;65814;51.134;16.980;2023-08-01T02:19:33;3.90;;;2.60;;
76848;SDS011;65814;51.134;16.980;2023-08-01T02:22:01;4.70;;;2.90;;
76848;SDS011;65814;51.134;16.980;2023-08-01T02:24:29;5.60;;;2.40;;
76848;SDS011;65814;51.134;16.980;2023-08-01T02:27:00;4.10;;;2.40;;
76848;SDS011;65814;51.134;16.980;2023-08-01T02:29:28;5.00;;;2.50;;
76848;SDS011;65814;51.134;16.980;2023-08-01T02:31:59;6.00;;;3.00;;
76848;SDS011;65814;51.134;16.980;2023-08-01T02:34:27;4.90;;;3.60;;
76848;SDS011;65814;51.134;16.980;2023-08-01T02:36:54;4.70;;;2.80;;
76848;SDS011;65814;51.134;16.980;2023-08-01T02:39:22;3.80;;;2.50;;
76848;SDS011;65814;51.134;16.980;2023-08-01T02:41:53;4.60;;;2.70;;
76848;SDS011;65814;51.134;16.980;2023-08-01T02:44:22;3.50;;;2.30;;
76848;SDS011;65814;51.134;16.980;2023-08-01T02:46:50;5.60;;;3.00;;
76848;SDS011;65814;51.134;16.980;2023-08-01T02:49:18;4.50;;;2.30;;
76848;SDS011;65814;51.134;16.980;2023-08-01T02:51:45;5.10;;;2.30;;
76848;SDS011;65814;51.134;16.980;2023-08-01T02:54:13;4.90;;;2.40;;
76848;SDS011;65814;51.134;16.980;2023-08-01T02:56:41;3.60;;;2.40;;
76848;SDS011;65814;51.134;16.980;2023-08-01T02:59:09;5.20;;;2.60;;
76848;SDS011;65814;51.134;16.980;2023-08-01T03:01:38;5.40;;;3.10;;
76848;SDS011;65814;51.134;16.980;2023-08-01T03:04:07;3.90;;;2.60;;
76848;SDS011;65814;51.134;16.980;2023-08-01T03:06:35;3.30;;;2.40;;
76848;SDS011;65814;51.134;16.980;2023-08-01T03:09:02;4.00;;;2.50;;
76848;SDS011;65814;51.134;16.980;2023-08-01T03:11:30;4.90;;;2.80;;
76848;SDS011;65814;51.134;16.980;2023-08-01T03:13:58;3.80;;;3.20;;
76848;SDS011;65814;51.134;16.980;2023-08-01T03:16:26;4.80;;;2.50;;
76848;SDS011;65814;51.134;16.980;2023-08-01T03:18:55;4.50;;;2.40;;
76848;SDS011;65814;51.134;16.980;2023-08-01T03:21:24;6.10;;;3.40;;
76848;SDS011;65814;51.134;16.980;2023-08-01T03:23:53;6.40;;;3.10;;
76848;SDS011;65814;51.134;16.980;2023-08-01T03:26:23;5.00;;;2.60;;
76848;SDS011;65814;51.134;16.980;2023-08-01T03:28:51;7.70;;;3.70;;
76848;SDS011;65814;51.134;16.980;2023-08-01T03:31:19;5.90;;;3.00;;
76848;SDS011;65814;51.134;16.980;2023-08-01T03:33:47;4.20;;;3.20;;
76848;SDS011;65814;51.134;16.980;2023-08-01T03:36:15;3.70;;;2.60;;
76848;SDS011;65814;51.134;16.980;2023-08-01T03:38:43;8.20;;;3.10;;
76848;SDS011;65814;51.134;16.980;2023-08-01T03:41:11;5.60;;;3.60;;
76848;SDS011;65814;51.134;16.980;2023-08-01T03:43:39;5.80;;;3.10;;
76848;SDS011;65814;51.134;16.980;2023-08-01T03:46:07;9.10;;;3.30;;
76848;SDS011;65814;51.134;16.980;2023-08-01T03:48:35;6.70;;;3.30;;
76848;SDS011;65814;51.134;16.980;2023-08-01T03:51:03;7.40;;;2.70;;
76848;SDS011;65814;51.134;16.980;2023-08-01T03:53:31;5.60;;;2.70;;
76848;SDS011;65814;51.134;16.980;2023-08-01T03:55:59;3.90;;;2.60;;
76848;SDS011;65814;51.134;16.980;2023-08-01T03:58:27;5.00;;;3.10;;
76848;SDS011;65814;51.134;16.980;2023-08-01T04:00:55;4.40;;;2.60;;
76848;SDS011;65814;51.134;16.980;2023-08-01T04:03:23;6.30;;;3.50;;
76848;SDS011;65814;51.134;16.980;2023-08-01T04:05:51;4.90;;;2.70;;
76848;SDS011;65814;51.134;16.980;2023-08-01T04:08:19;6.90;;;4.00;;
76848;SDS011;65814;51.134;16.980;2023-08-01T04:10:49;7.50;;;3.50;;
76848;SDS011;65814;51.134;16.980;2023-08-01T04:13:18;6.10;;;3.10;;
76848;SDS011;65814;51.134;16.980;2023-08-01T04:15:47;5.10;;;3.10;;
76848;SDS011;65814;51.134;16.980;2023-08-01T04:18:15;5.00;;;3.40;;
76848;SDS011;65814;51.134;16.980;2023-08-01T04:20:46;4.50;;;3.60;;
76848;SDS011;65814;51.134;16.980;2023-08-01T04:23:13;5.00;;;3.20;;
76848;SDS011;65814;51.134;16.980;2023-08-01T04:25:42;4.50;;;2.80;;
76848;SDS011;65814;51.134;16.980;2023-08-01T04:28:10;5.50;;;3.80;;
76848;SDS011;65814;51.134;16.980;2023-08-01T04:30:38;3.80;;;3.00;;
76848;SDS011;65814;51.134;16.980;2023-08-01T04:33:06;5.00;;;3.00;;
76848;SDS011;65814;51.134;16.980;2023-08-01T04:35:34;4.50;;;3.10;;
76848;SDS011;65814;51.134;16.980;2023-08-01T04:38:02;4.70;;;3.10;;
76848;SDS011;65814;51.134;16.980;2023-08-01T04:40:29;11.00;;;4.00;;
76848;SDS011;65814;51.134;16.980;2023-08-01T04:42:57;4.00;;;3.30;;
76848;SDS011;65814;51.134;16.980;2023-08-01T04:45:25;8.10;;;3.50;;
76848;SDS011;65814;51.134;16.980;2023-08-01T04:47:53;5.00;;;3.50;;
76848;SDS011;65814;51.134;16.980;2023-08-01T04:50:21;4.10;;;2.70;;
76848;SDS011;65814;51.134;16.980;2023-08-01T04:52:49;7.00;;;3.30;;
76848;SDS011;65814;51.134;16.980;2023-08-01T04:55:17;4.60;;;3.00;;
76848;SDS011;65814;51.134;16.980;2023-08-01T04:57:44;5.30;;;3.80;;
76848;SDS011;65814;51.134;16.980;2023-08-01T05:00:12;6.40;;;3.90;;
76848;SDS011;65814;51.134;16.980;2023-08-01T05:02:41;5.20;;;2.90;;
76848;SDS011;65814;51.134;16.980;2023-08-01T05:05:08;4.80;;;3.00;;
76848;SDS011;65814;51.134;16.980;2023-08-01T05:07:36;6.10;;;3.00;;
76848;SDS011;65814;51.134;16.980;2023-08-01T05:10:04;8.00;;;3.00;;
76848;SDS011;65814;51.134;16.980;2023-08-01T05:12:32;4.20;;;2.70;;
76848;SDS011;65814;51.134;16.980;2023-08-01T05:15:00;4.30;;;2.80;;
76848;SDS011;65814;51.134;16.980;2023-08-01T05:17:28;5.70;;;3.10;;
76848;SDS011;65814;51.134;16.980;2023-08-01T05:19:56;4.50;;;2.70;;
76848;SDS011;65814;51.134;16.980;2023-08-01T05:22:24;5.50;;;3.10;;
76848;SDS011;65814;51.134;16.980;2023-08-01T05:24:52;4.30;;;2.70;;
76848;SDS011;65814;51.134;16.980;2023-08-01T05:27:20;5.10;;;3.00;;
76848;SDS011;65814;51.134;16.980;2023-08-01T05:29:48;5.20;;;2.90;;
76848;SDS011;65814;51.134;16.980;2023-08-01T05:32:16;5.30;;;3.50;;
76848;SDS011;65814;51.134;16.980;2023-08-01T05:34:44;6.50;;;3.60;;
76848;SDS011;65814;51.134;16.980;2023-08-01T05:37:12;6.70;;;3.70;;
76848;SDS011;65814;51.134;16.980;2023-08-01T05:39:40;5.00;;;3.50;;
76848;SDS011;65814;51.134;16.980;2023-08-01T05:42:08;7.90;;;4.50;;
76848;SDS011;65814;51.134;16.980;2023-08-01T05:44:36;4.80;;;3.40;;
76848;SDS011;65814;51.134;16.980;2023-08-01T05:47:04;6.90;;;3.80;;
76848;SDS011;65814;51.134;16.980;2023-08-01T05:49:33;9.40;;;4.60;;
76848;SDS011;65814;51.134;16.980;2023-08-01T05:52:01;6.50;;;4.30;;
76848;SDS011;65814;51.134;16.980;2023-08-01T05:54:28;7.50;;;4.00;;
76848;SDS011;65814;51.134;16.980;2023-08-01T05:56:56;4.80;;;3.10;;
76848;SDS011;65814;51.134;16.980;2023-08-01T05:59:24;5.50;;;3.90;;
76848;SDS011;65814;51.134;16.980;2023-08-01T06:01:52;4.50;;;2.80;;
76848;SDS011;65814;51.134;16.980;2023-08-01T06:04:20;4.90;;;3.70;;
76848;SDS011;65814;51.134;16.980;2023-08-01T06:06:48;4.90;;;3.60;;
76848;SDS011;65814;51.134;16.980;2023-08-01T06:09:16;4.80;;;3.30;;
76848;SDS011;65814;51.134;16.980;2023-08-01T06:11:43;6.60;;;4.00;;
76848;SDS011;65814;51.134;16.980;2023-08-01T06:14:11;6.60;;;3.30;;
76848;SDS011;65814;51.134;16.980;2023-08-01T06:16:39;5.70;;;3.30;;
76848;SDS011;65814;51.134;16.980;2023-08-01T06:19:07;5.80;;;3.30;;
76848;SDS011;65814;51.134;16.980;2023-08-01T06:21:35;5.00;;;3.60;;
76848;SDS011;65814;51.134;16.980;2023-08-01T06:24:03;5.40;;;3.60;;
76848;SDS011;65814;51.134;16.980;2023-08-01T06:26:31;4.60;;;3.40;;
76848;SDS011;65814;51.134;16.980;2023-08-01T06:28:59;5.50;;;3.90;;
76848;SDS011;65814;51.134;16.980;2023-08-01T06:31:26;5.20;;;3.50;;
76848;SDS011;65814;51.134;16.980;2023-08-01T06:33:54;5.50;;;3.50;;
76848;SDS011;65814;51.134;16.980;2023-08-01T06:36:22;5.80;;;3.00;;
76848;SDS011;65814;51.134;16.980;2023-08-01T06:38:53;5.60;;;3.60;;
76848;SDS011;65814;51.134;16.980;2023-08-01T06:41:21;6.00;;;3.40;;
76848;SDS011;65814;51.134;16.980;2023-08-01T06:43:49;6.50;;;3.70;;
76848;SDS011;65814;51.134;16.980;2023-08-01T06:46:17;5.80;;;3.70;;
76848;SDS011;65814;51.134;16.980;2023-08-01T06:48:44;6.60;;;4.00;;
76848;SDS011;65814;51.134;16.980;2023-08-01T06:51:12;7.10;;;3.90;;
76848;SDS011;65814;51.134;16.980;2023-08-01T06:53:40;5.90;;;3.90;;
76848;SDS011;65814;51.134;16.980;2023-08-01T06:56:08;4.60;;;3.30;;
76848;SDS011;65814;51.134;16.980;2023-08-01T06:58:36;6.30;;;3.50;;
76848;SDS011;65814;51.134;16.980;2023-08-01T07:01:04;5.50;;;3.60;;
76848;SDS011;65814;51.134;16.980;2023-08-01T07:03:32;5.70;;;3.70;;
76848;SDS011;65814;51.134;16.980;2023-08-01T07:06:00;4.00;;;3.10;;
76848;SDS011;65814;51.134;16.980;2023-08-01T07:08:28;5.80;;;3.20;;
76848;SDS011;65814;51.134;16.980;2023-08-01T07:10:56;6.60;;;3.60;;
76848;SDS011;65814;51.134;16.980;2023-08-01T07:13:24;6.30;;;3.80;;
76848;SDS011;65814;51.134;16.980;2023-08-01T07:15:52;5.00;;;3.30;;
76848;SDS011;65814;51.134;16.980;2023-08-01T07:18:21;5.50;;;4.00;;
76848;SDS011;65814;51.134;16.980;2023-08-01T07:20:58;7.80;;;3.70;;
76848;SDS011;65814;51.134;16.980;2023-08-01T07:23:27;6.00;;;4.00;;
76848;SDS011;65814;51.134;16.980;2023-08-01T07:25:55;6.60;;;4.50;;
76848;SDS011;65814;51.134;16.980;2023-08-01T07:28:23;5.10;;;3.80;;
76848;SDS011;65814;51.134;16.980;2023-08-01T07:31:00;7.20;;;3.80;;
76848;SDS011;65814;51.134;16.980;2023-08-01T07:33:29;6.80;;;4.00;;
76848;SDS011;65814;51.134;16.980;2023-08-01T07:35:57;7.00;;;3.80;;
76848;SDS011;65814;51.134;16.980;2023-08-01T07:38:25;6.90;;;4.40;;
76848;SDS011;65814;51.134;16.980;2023-08-01T07:40:56;8.40;;;4.60;;
76848;SDS011;65814;51.134;16.980;2023-08-01T07:43:25;5.70;;;4.20;;
76848;SDS011;65814;51.134;16.980;2023-08-01T07:45:55;5.80;;;4.30;;
76848;SDS011;65814;51.134;16.980;2023-08-01T07:48:24;9.00;;;4.50;;
76848;SDS011;65814;51.134;16.980;2023-08-01T07:50:52;5.60;;;4.00;;
76848;SDS011;65814;51.134;16.980;2023-08-01T07:53:20;7.70;;;3.80;;
76848;SDS011;65814;51.134;16.980;2023-08-01T07:55:48;7.00;;;4.20;;
76848;SDS011;65814;51.134;16.980;2023-08-01T07:58:16;6.90;;;4.40;;
76848;SDS011;65814;51.134;16.980;2023-08-01T08:00:44;7.50;;;4.30;;
76848;SDS011;65814;51.134;16.980;2023-08-01T08:03:12;5.00;;;3.50;;
76848;SDS011;65814;51.134;16.980;2023-08-01T08:05:40;6.40;;;4.00;;
76848;SDS011;65814;51.134;16.980;2023-08-01T08:08:08;5.10;;;3.50;;
76848;SDS011;65814;51.134;16.980;2023-08-01T08:10:37;6.90;;;3.60;;
76848;SDS011;65814;51.134;16.980;2023-08-01T08:13:09;6.80;;;4.10;;
76848;SDS011;65814;51.134;16.980;2023-08-01T08:15:37;8.10;;;5.10;;
76848;SDS011;65814;51.134;16.980;2023-08-01T08:18:05;5.90;;;4.00;;
76848;SDS011;65814;51.134;16.980;2023-08-01T08:20:34;5.80;;;3.40;;
76848;SDS011;65814;51.134;16.980;2023-08-01T08:23:09;8.90;;;4.10;;
76848;SDS011;65814;51.134;16.980;2023-08-01T08:25:37;7.10;;;4.00;;
76848;SDS011;65814;51.134;16.980;2023-08-01T08:28:05;5.40;;;3.50;;
76848;SDS011;65814;51.134;16.980;2023-08-01T08:30:34;5.70;;;3.70;;
76848;SDS011;65814;51.134;16.980;2023-08-01T08:33:02;7.30;;;3.50;;
76848;SDS011;65814;51.134;16.980;2023-08-01T08:35:35;7.90;;;4.20;;
76848;SDS011;65814;51.134;16.980;2023-08-01T08:38:03;4.90;;;3.30;;
76848;SDS011;65814;51.134;16.980;2023-08-01T08:40:32;4.30;;;3.30;;
76848;SDS011;65814;51.134;16.980;2023-08-01T08:43:01;6.30;;;3.60;;
76848;SDS011;65814;51.134;16.980;2023-08-01T08:45:35;5.80;;;3.60;;
76848;SDS011;65814;51.134;16.980;2023-08-01T08:48:09;4.90;;;3.70;;
76848;SDS011;65814;51.134;16.980;2023-08-01T08:50:38;8.40;;;3.70;;
76848;SDS011;65814;51.134;16.980;2023-08-01T08:53:07;5.50;;;3.70;;
76848;SDS011;65814;51.134;16.980;2023-08-01T08:55:40;6.10;;;3.60;;
76848;SDS011;65814;51.134;16.980;2023-08-01T08:58:08;6.70;;;4.10;;
76848;SDS011;65814;51.134;16.980;2023-08-01T09:00:36;5.70;;;3.60;;
76848;SDS011;65814;51.134;16.980;2023-08-01T09:03:05;5.70;;;3.50;;
76848;SDS011;65814;51.134;16.980;2023-08-01T09:05:34;5.60;;;3.90;;
76848;SDS011;65814;51.134;16.980;2023-08-01T09:08:24;5.00;;;3.70;;
76848;SDS011;65814;51.134;16.980;2023-08-01T09:10:54;6.50;;;4.00;;
76848;SDS011;65814;51.134;16.980;2023-08-01T09:13:22;7.00;;;3.90;;
76848;SDS011;65814;51.134;16.980;2023-08-01T09:15:51;4.40;;;3.50;;
76848;SDS011;65814;51.134;16.980;2023-08-01T09:18:19;4.70;;;3.30;;
76848;SDS011;65814;51.134;16.980;2023-08-01T09:20:48;6.20;;;3.60;;
76848;SDS011;65814;51.134;16.980;2023-08-01T09:23:17;7.00;;;3.50;;
76848;SDS011;65814;51.134;16.980;2023-08-01T09:25:45;4.30;;;3.40;;
76848;SDS011;65814;51.134;16.980;2023-08-01T09:30:49;4.90;;;3.10;;
76848;SDS011;65814;51.134;16.980;2023-08-01T09:33:18;4.90;;;2.80;;
76848;SDS011;65814;51.134;16.980;2023-08-01T09:35:46;4.30;;;3.40;;
76848;SDS011;65814;51.134;16.980;2023-08-01T09:38:14;5.50;;;3.20;;
76848;SDS011;65814;51.134;16.980;2023-08-01T09:40:47;3.80;;;3.20;;
76848;SDS011;65814;51.134;16.980;2023-08-01T09:43:15;4.50;;;3.20;;
76848;SDS011;65814;51.134;16.980;2023-08-01T09:45:50;7.70;;;3.10;;
76848;SDS011;65814;51.134;16.980;2023-08-01T09:48:28;6.00;;;3.30;;
76848;SDS011;65814;51.134;16.980;2023-08-01T09:51:07;5.60;;;3.10;;
76848;SDS011;65814;51.134;16.980;2023-08-01T09:53:45;4.90;;;3.90;;
76848;SDS011;65814;51.134;16.980;2023-08-01T09:56:19;5.90;;;3.40;;
76848;SDS011;65814;51.134;16.980;2023-08-01T09:58:49;6.40;;;3.40;;
76848;SDS011;65814;51.134;16.980;2023-08-01T10:01:19;6.10;;;3.30;;
76848;SDS011;65814;51.134;16.980;2023-08-01T10:03:48;3.90;;;2.90;;
76848;SDS011;65814;51.134;16.980;2023-08-01T10:06:28;5.80;;;3.30;;
76848;SDS011;65814;51.134;16.980;2023-08-01T10:08:57;3.70;;;2.70;;
76848;SDS011;65814;51.134;16.980;2023-08-01T10:11:26;5.50;;;3.30;;
76848;SDS011;65814;51.134;16.980;2023-08-01T10:13:54;4.40;;;3.40;;
76848;SDS011;65814;51.134;16.980;2023-08-01T10:16:23;4.20;;;2.90;;
76848;SDS011;65814;51.134;16.980;2023-08-01T10:18:52;5.10;;;3.30;;
76848;SDS011;65814;51.134;16.980;2023-08-01T10:21:20;6.50;;;3.10;;
76848;SDS011;65814;51.134;16.980;2023-08-01T10:23:48;3.90;;;3.60;;
76848;SDS011;65814;51.134;16.980;2023-08-01T10:26:17;4.20;;;3.30;;
76848;SDS011;65814;51.134;16.980;2023-08-01T10:28:51;4.30;;;3.00;;
76848;SDS011;65814;51.134;16.980;2023-08-01T10:31:20;6.40;;;3.70;;
76848;SDS011;65814;51.134;16.980;2023-08-01T10:33:49;6.40;;;3.10;;
76848;SDS011;65814;51.134;16.980;2023-08-01T10:36:21;4.00;;;2.80;;
76848;SDS011;65814;51.134;16.980;2023-08-01T10:38:51;5.20;;;3.00;;
76848;SDS011;65814;51.134;16.980;2023-08-01T10:41:22;5.00;;;3.30;;
76848;SDS011;65814;51.134;16.980;2023-08-01T10:44:13;5.20;;;3.40;;
76848;SDS011;65814;51.134;16.980;2023-08-01T10:46:52;3.70;;;2.80;;
76848;SDS011;65814;51.134;16.980;2023-08-01T10:49:37;4.70;;;3.30;;
76848;SDS011;65814;51.134;16.980;2023-08-01T10:52:17;4.80;;;3.20;;
76848;SDS011;65814;51.134;16.980;2023-08-01T10:54:46;5.10;;;3.20;;
76848;SDS011;65814;51.134;16.980;2023-08-01T10:57:15;5.90;;;3.70;;
76848;SDS011;65814;51.134;16.980;2023-08-01T10:59:45;6.60;;;3.40;;
76848;SDS011;65814;51.134;16.980;2023-08-01T11:02:19;4.30;;;3.30;;
76848;SDS011;65814;51.134;16.980;2023-08-01T11:07:29;4.50;;;2.80;;
76848;SDS011;65814;51.134;16.980;2023-08-01T11:10:04;4.80;;;3.00;;
76848;SDS011;65814;51.134;16.980;2023-08-01T11:12:40;5.90;;;2.80;;
76848;SDS011;65814;51.134;16.980;2023-08-01T11:15:09;4.70;;;3.20;;
76848;SDS011;65814;51.134;16.980;2023-08-01T11:17:39;5.60;;;3.20;;
76848;SDS011;65814;51.134;16.980;2023-08-01T11:20:08;4.20;;;2.80;;
76848;SDS011;65814;51.134;16.980;2023-08-01T11:22:38;5.90;;;3.70;;
76848;SDS011;65814;51.134;16.980;2023-08-01T11:25:07;6.20;;;3.10;;
76848;SDS011;65814;51.134;16.980;2023-08-01T11:27:35;5.70;;;3.20;;
76848;SDS011;65814;51.134;16.980;2023-08-01T11:30:03;6.20;;;4.50;;
76848;SDS011;65814;51.134;16.980;2023-08-01T11:32:35;5.60;;;3.10;;
76848;SDS011;65814;51.134;16.980;2023-08-01T11:37:32;6.00;;;3.00;;
76848;SDS011;65814;51.134;16.980;2023-08-01T11:40:00;3.00;;;2.60;;
76848;SDS011;65814;51.134;16.980;2023-08-01T11:42:31;5.70;;;2.80;;
76848;SDS011;65814;51.134;16.980;2023-08-01T11:47:35;4.70;;;2.60;;
76848;SDS011;65814;51.134;16.980;2023-08-01T11:50:04;3.90;;;2.10;;
76848;SDS011;65814;51.134;16.980;2023-08-01T11:52:33;3.60;;;2.50;;
76848;SDS011;65814;51.134;16.980;2023-08-01T11:55:02;2.80;;;2.30;;
76848;SDS011;65814;51.134;16.980;2023-08-01T11:57:30;5.10;;;2.90;;
76848;SDS011;65814;51.134;16.980;2023-08-01T11:59:58;6.60;;;2.80;;
76848;SDS011;65814;51.134;16.980;2023-08-01T12:02:27;3.40;;;2.50;;
76848;SDS011;65814;51.134;16.980;2023-08-01T12:04:59;3.20;;;2.50;;
76848;SDS011;65814;51.134;16.980;2023-08-01T12:07:27;5.70;;;2.60;;
76848;SDS011;65814;51.134;16.980;2023-08-01T12:10:00;3.10;;;2.20;;
76848;SDS011;65814;51.134;16.980;2023-08-01T12:12:28;3.10;;;2.10;;
76848;SDS011;65814;51.134;16.980;2023-08-01T12:14:56;4.30;;;2.50;;
76848;SDS011;65814;51.134;16.980;2023-08-01T12:17:25;4.60;;;2.40;;
76848;SDS011;65814;51.134;16.980;2023-08-01T12:19:53;4.10;;;3.00;;
76848;SDS011;65814;51.134;16.980;2023-08-01T12:22:21;2.90;;;1.90;;
76848;SDS011;65814;51.134;16.980;2023-08-01T12:24:49;3.90;;;2.10;;
76848;SDS011;65814;51.134;16.980;2023-08-01T12:27:17;3.30;;;2.60;;
76848;SDS011;65814;51.134;16.980;2023-08-01T12:29:45;3.40;;;2.30;;
76848;SDS011;65814;51.134;16.980;2023-08-01T12:32:12;4.60;;;2.70;;
76848;SDS011;65814;51.134;16.980;2023-08-01T12:34:41;6.10;;;2.80;;
76848;SDS011;65814;51.134;16.980;2023-08-01T12:37:09;3.80;;;2.40;;
76848;SDS011;65814;51.134;16.980;2023-08-01T12:39:37;2.30;;;1.90;;
76848;SDS011;65814;51.134;16.980;2023-08-01T12:42:05;6.40;;;2.10;;
76848;SDS011;65814;51.134;16.980;2023-08-01T12:44:33;3.10;;;2.10;;
76848;SDS011;65814;51.134;16.980;2023-08-01T12:47:01;3.30;;;1.90;;
76848;SDS011;65814;51.134;16.980;2023-08-01T12:49:29;4.00;;;2.50;;
76848;SDS011;65814;51.134;16.980;2023-08-01T12:51:57;3.40;;;2.00;;
76848;SDS011;65814;51.134;16.980;2023-08-01T12:54:25;3.30;;;1.90;;
76848;SDS011;65814;51.134;16.980;2023-08-01T12:56:53;3.30;;;2.00;;
76848;SDS011;65814;51.134;16.980;2023-08-01T12:59:21;3.90;;;2.60;;
76848;SDS011;65814;51.134;16.980;2023-08-01T13:01:49;2.60;;;2.00;;
76848;SDS011;65814;51.134;16.980;2023-08-01T13:04:17;3.00;;;2.00;;
76848;SDS011;65814;51.134;16.980;2023-08-01T13:06:45;3.00;;;2.00;;
76848;SDS011;65814;51.134;16.980;2023-08-01T13:09:13;2.60;;;1.80;;
76848;SDS011;65814;51.134;16.980;2023-08-01T13:11:44;4.70;;;1.90;;
76848;SDS011;65814;51.134;16.980;2023-08-01T13:14:12;3.60;;;1.90;;
76848;SDS011;65814;51.134;16.980;2023-08-01T13:16:40;2.30;;;1.80;;
76848;SDS011;65814;51.134;16.980;2023-08-01T13:19:08;2.80;;;2.10;;
76848;SDS011;65814;51.134;16.980;2023-08-01T13:21:36;2.50;;;1.70;;
76848;SDS011;65814;51.134;16.980;2023-08-01T13:24:04;2.70;;;1.80;;
76848;SDS011;65814;51.134;16.980;2023-08-01T13:26:33;2.50;;;1.90;;
76848;SDS011;65814;51.134;16.980;2023-08-01T13:29:01;4.30;;;2.50;;
76848;SDS011;65814;51.134;16.980;2023-08-01T13:31:29;4.10;;;2.00;;
76848;SDS011;65814;51.134;16.980;2023-08-01T13:33:57;3.00;;;2.40;;
76848;SDS011;65814;51.134;16.980;2023-08-01T13:36:25;3.80;;;2.10;;
76848;SDS011;65814;51.134;16.980;2023-08-01T13:38:53;3.30;;;1.90;;
76848;SDS011;65814;51.134;16.980;2023-08-01T13:41:21;5.60;;;2.00;;
76848;SDS011;65814;51.134;16.980;2023-08-01T13:43:49;3.10;;;1.90;;
76848;SDS011;65814;51.134;16.980;2023-08-01T13:46:18;3.30;;;1.90;;
76848;SDS011;65814;51.134;16.980;2023-08-01T13:48:56;3.20;;;2.00;;
76848;SDS011;65814;51.134;16.980;2023-08-01T13:51:24;3.10;;;2.00;;
76848;SDS011;65814;51.134;16.980;2023-08-01T13:53:52;3.80;;;2.20;;
76848;SDS011;65814;51.134;16.980;2023-08-01T13:56:20;3.80;;;2.40;;
76848;SDS011;65814;51.134;16.980;2023-08-01T13:58:49;3.30;;;2.10;;
76848;SDS011;65814;51.134;16.980;2023-08-01T14:01:17;3.00;;;2.20;;
76848;SDS011;65814;51.134;16.980;2023-08-01T14:03:46;5.10;;;2.20;;
76848;SDS011;65814;51.134;16.980;2023-08-01T14:06:14;4.20;;;2.00;;
76848;SDS011;65814;51.134;16.980;2023-08-01T14:08:42;5.20;;;2.20;;
76848;SDS011;65814;51.134;16.980;2023-08-01T14:11:11;2.90;;;1.80;;
76848;SDS011;65814;51.134;16.980;2023-08-01T14:13:39;3.60;;;1.70;;
76848;SDS011;65814;51.134;16.980;2023-08-01T14:16:07;4.40;;;2.20;;
76848;SDS011;65814;51.134;16.980;2023-08-01T14:18:34;3.20;;;2.00;;
76848;SDS011;65814;51.134;16.980;2023-08-01T14:21:02;3.40;;;1.80;;
76848;SDS011;65814;51.134;16.980;2023-08-01T14:23:30;3.40;;;1.80;;
76848;SDS011;65814;51.134;16.980;2023-08-01T14:25:59;2.40;;;1.60;;
76848;SDS011;65814;51.134;16.980;2023-08-01T14:28:27;3.90;;;1.70;;
76848;SDS011;65814;51.134;16.980;2023-08-01T14:30:55;3.30;;;2.00;;
76848;SDS011;65814;51.134;16.980;2023-08-01T14:33:23;2.60;;;1.90;;
76848;SDS011;65814;51.134;16.980;2023-08-01T14:35:51;3.00;;;1.90;;
76848;SDS011;65814;51.134;16.980;2023-08-01T14:38:19;2.40;;;1.80;;
76848;SDS011;65814;51.134;16.980;2023-08-01T14:40:47;4.10;;;2.10;;
76848;SDS011;65814;51.134;16.980;2023-08-01T14:43:35;3.30;;;2.00;;
76848;SDS011;65814;51.134;16.980;2023-08-01T14:46:03;5.10;;;2.10;;
76848;SDS011;65814;51.134;16.980;2023-08-01T14:48:31;2.80;;;1.90;;
76848;SDS011;65814;51.134;16.980;2023-08-01T14:50:59;3.30;;;2.30;;
76848;SDS011;65814;51.134;16.980;2023-08-01T14:53:27;4.00;;;1.80;;